sensor_id;sensor_type;location;lat;lon;timestamp;pressure;altitude;pressure_sealevel;temperature;humidity
65800;BME280;52544;48.116;11.660;2023-05-09T00:02:23;95974.72;;;10.37;100.00
65800;BME280;52544;48.116;11.660;2023-05-09T00:04:48;95968.53;;;10.36;100.00
65800;BME280;52544;48.116;11.660;2023-05-09T00:07:13;95974.56;;;10.27;100.00
65800;BME280;52544;48.116;11.660;2023-05-09T00:09:39;95967.72;;;10.24;100.00
65800;BME280;52544;48.116;11.660;2023-05-09T00:12:04;95970.09;;;10.27;100.00
65800;BME280;52544;48.116;11.660;2023-05-09T00:14:30;95964.53;;;10.19;100.00
65800;BME280;52544;48.116;11.660;2023-05-09T00:16:58;95958.78;;;10.14;100.00
65800;BME280;52544;48.116;11.660;2023-05-09T00:19:24;95954.69;;;10.10;100.00
65800;BME280;52544;48.116;11.660;2023-05-09T00:21:49;95962.88;;;10.07;100.00
65800;BME280;52544;48.116;11.660;2023-05-09T00:24:14;95962.72;;;9.97;100.00
65800;BME280;52544;48.116;11.660;2023-05-09T00:26:40;95967.16;;;9.97;100.00
65800;BME280;52544;48.116;11.660;2023-05-09T00:29:05;95955.72;;;9.85;100.00
65800;BME280;52544;48.116;11.660;2023-05-09T00:31:31;95964.41;;;9.87;100.00
65800;BME280;52544;48.116;11.660;2023-05-09T00:33:56;95955.16;;;9.82;100.00
65800;BME280;52544;48.116;11.660;2023-05-09T00:36:21;95953.44;;;9.81;100.00
65800;BME280;52544;48.116;11.660;2023-05-09T00:38:47;95958.72;;;9.81;100.00
65800;BME280;52544;48.116;11.660;2023-05-09T00:41:13;95959.69;;;9.80;100.00
65800;BME280;52544;48.116;11.660;2023-05-09T00:43:38;95951.78;;;9.91;100.00
65800;BME280;52544;48.116;11.660;2023-05-09T00:46:04;95950.81;;;9.92;100.00
65800;BME280;52544;48.116;11.660;2023-05-09T00:48:29;95952.41;;;9.94;100.00
65800;BME280;52544;48.116;11.660;2023-05-09T00:50:55;95948.06;;;9.82;100.00
65800;BME280;52544;48.116;11.660;2023-05-09T00:53:21;95951.28;;;9.74;100.00
65800;BME280;52544;48.116;11.660;2023-05-09T00:55:47;95947.91;;;9.72;100.00
65800;BME280;52544;48.116;11.660;2023-05-09T00:58:12;95944.75;;;9.67;100.00
65800;BME280;52544;48.116;11.660;2023-05-09T01:00:38;95945.50;;;9.69;100.00
65800;BME280;52544;48.116;11.660;2023-05-09T01:03:04;95943.94;;;9.67;100.00
65800;BME280;52544;48.116;11.660;2023-05-09T01:05:37;95941.03;;;9.59;100.00
65800;BME280;52544;48.116;11.660;2023-05-09T01:08:13;95941.38;;;9.54;100.00
65800;BME280;52544;48.116;11.660;2023-05-09T01:10:57;95935.59;;;9.49;100.00
65800;BME280;52544;48.116;11.660;2023-05-09T01:13:37;95936.03;;;9.43;100.00
65800;BME280;52544;48.116;11.660;2023-05-09T01:19:20;95929.22;;;9.40;100.00
65800;BME280;52544;48.116;11.660;2023-05-09T01:21:51;95936.16;;;9.41;100.00
65800;BME280;52544;48.116;11.660;2023-05-09T01:24:31;95925.81;;;9.38;100.00
65800;BME280;52544;48.116;11.660;2023-05-09T01:27:20;95917.31;;;9.35;100.00
65800;BME280;52544;48.116;11.660;2023-05-09T01:29:47;95919.44;;;9.30;100.00
65800;BME280;52544;48.116;11.660;2023-05-09T01:32:22;95921.50;;;9.26;100.00
65800;BME280;52544;48.116;11.660;2023-05-09T01:34:51;95934.06;;;9.22;100.00
65800;BME280;52544;48.116;11.660;2023-05-09T01:37:18;95932.72;;;9.17;100.00
65800;BME280;52544;48.116;11.660;2023-05-09T01:39:47;95932.38;;;9.21;100.00
65800;BME280;52544;48.116;11.660;2023-05-09T01:42:15;95936.09;;;9.19;100.00
65800;BME280;52544;48.116;11.660;2023-05-09T01:44:43;95921.22;;;9.18;100.00
65800;BME280;52544;48.116;11.660;2023-05-09T01:47:11;95923.47;;;9.11;100.00
65800;BME280;52544;48.116;11.660;2023-05-09T01:49:40;95928.88;;;9.10;100.00
65800;BME280;52544;48.116;11.660;2023-05-09T01:52:10;95916.00;;;9.05;100.00
65800;BME280;52544;48.116;11.660;2023-05-09T01:54:37;95920.53;;;9.03;100.00
65800;BME280;52544;48.116;11.660;2023-05-09T01:57:05;95917.91;;;9.03;100.00
65800;BME280;52544;48.116;11.660;2023-05-09T01:59:43;95919.00;;;9.00;100.00
65800;BME280;52544;48.116;11.660;2023-05-09T02:02:11;95908.75;;;8.96;100.00
65800;BME280;52544;48.116;11.660;2023-05-09T02:04:40;95913.03;;;8.86;100.00
65800;BME280;52544;48.116;11.660;2023-05-09T02:07:07;95910.59;;;8.83;100.00
65800;BME280;52544;48.116;11.660;2023-05-09T02:09:32;95914.94;;;8.84;100.00
65800;BME280;52544;48.116;11.660;2023-05-09T02:11:58;95911.69;;;8.80;100.00
65800;BME280;52544;48.116;11.660;2023-05-09T02:14:23;95908.91;;;8.82;100.00
65800;BME280;52544;48.116;11.660;2023-05-09T02:16:49;95916.16;;;8.67;100.00
65800;BME280;52544;48.116;11.660;2023-05-09T02:19:14;95910.03;;;8.66;100.00
65800;BME280;52544;48.116;11.660;2023-05-09T02:21:41;95906.69;;;8.64;100.00
65800;BME280;52544;48.116;11.660;2023-05-09T02:24:06;95905.00;;;8.63;100.00
65800;BME280;52544;48.116;11.660;2023-05-09T02:26:32;95901.19;;;8.67;100.00
65800;BME280;52544;48.116;11.660;2023-05-09T02:28:59;95898.25;;;8.59;100.00
65800;BME280;52544;48.116;11.660;2023-05-09T02:31:27;95898.63;;;8.66;100.00
65800;BME280;52544;48.116;11.660;2023-05-09T02:33:54;95894.19;;;8.66;100.00
65800;BME280;52544;48.116;11.660;2023-05-09T02:36:21;95901.84;;;8.58;100.00
65800;BME280;52544;48.116;11.660;2023-05-09T02:38:46;95898.97;;;8.61;100.00
65800;BME280;52544;48.116;11.660;2023-05-09T02:41:16;95891.72;;;8.52;100.00
65800;BME280;52544;48.116;11.660;2023-05-09T02:43:41;95891.94;;;8.49;100.00
65800;BME280;52544;48.116;11.660;2023-05-09T02:46:08;95891.00;;;8.50;100.00
65800;BME280;52544;48.116;11.660;2023-05-09T02:48:34;95886.91;;;8.46;100.00
65800;BME280;52544;48.116;11.660;2023-05-09T02:51:00;95885.19;;;8.45;100.00
65800;BME280;52544;48.116;11.660;2023-05-09T02:53:25;95885.19;;;8.45;100.00
65800;BME280;52544;48.116;11.660;2023-05-09T02:55:50;95867.91;;;8.41;100.00
65800;BME280;52544;48.116;11.660;2023-05-09T02:58:18;95870.25;;;8.33;100.00
65800;BME280;52544;48.116;11.660;2023-05-09T03:00:43;95877.94;;;8.36;100.00
65800;BME280;52544;48.116;11.660;2023-05-09T03:03:09;95875.09;;;8.39;100.00
65800;BME280;52544;48.116;11.660;2023-05-09T03:05:34;95874.66;;;8.45;100.00
65800;BME280;52544;48.116;11.660;2023-05-09T03:07:59;95878.47;;;8.41;100.00
65800;BME280;52544;48.116;11.660;2023-05-09T03:10:25;95876.47;;;8.32;100.00
65800;BME280;52544;48.116;11.660;2023-05-09T03:12:50;95875.28;;;8.36;100.00
65800;BME280;52544;48.116;11.660;2023-05-09T03:15:16;95881.88;;;8.17;100.00
65800;BME280;52544;48.116;11.660;2023-05-09T03:17:41;95878.75;;;8.12;100.00
65800;BME280;52544;48.116;11.660;2023-05-09T03:20:07;95880.31;;;8.15;100.00
65800;BME280;52544;48.116;11.660;2023-05-09T03:22:34;95877.00;;;8.24;100.00
65800;BME280;52544;48.116;11.660;2023-05-09T03:25:00;95876.25;;;8.35;100.00
65800;BME280;52544;48.116;11.660;2023-05-09T03:27:26;95880.81;;;8.33;100.00
65800;BME280;52544;48.116;11.660;2023-05-09T03:29:51;95877.63;;;8.27;100.00
65800;BME280;52544;48.116;11.660;2023-05-09T03:32:17;95870.50;;;8.17;100.00
65800;BME280;52544;48.116;11.660;2023-05-09T03:34:42;95869.41;;;8.19;100.00
65800;BME280;52544;48.116;11.660;2023-05-09T03:37:07;95866.91;;;8.18;100.00
65800;BME280;52544;48.116;11.660;2023-05-09T03:39:33;95870.16;;;8.21;100.00
65800;BME280;52544;48.116;11.660;2023-05-09T03:41:58;95871.72;;;8.24;100.00
65800;BME280;52544;48.116;11.660;2023-05-09T03:44:24;95872.31;;;8.16;100.00
65800;BME280;52544;48.116;11.660;2023-05-09T03:46:50;95870.53;;;8.04;100.00
65800;BME280;52544;48.116;11.660;2023-05-09T03:49:15;95875.97;;;8.14;100.00
65800;BME280;52544;48.116;11.660;2023-05-09T03:51:41;95872.50;;;8.13;100.00
65800;BME280;52544;48.116;11.660;2023-05-09T03:54:06;95880.41;;;8.13;100.00
65800;BME280;52544;48.116;11.660;2023-05-09T03:56:31;95878.75;;;8.12;100.00
65800;BME280;52544;48.116;11.660;2023-05-09T03:58:57;95872.84;;;8.09;100.00
65800;BME280;52544;48.116;11.660;2023-05-09T04:01:23;95870.91;;;8.11;100.00
65800;BME280;52544;48.116;11.660;2023-05-09T04:03:49;95871.34;;;8.17;100.00
65800;BME280;52544;48.116;11.660;2023-05-09T04:06:16;95871.56;;;8.14;100.00
65800;BME280;52544;48.116;11.660;2023-05-09T04:08:42;95870.53;;;8.04;100.00
65800;BME280;52544;48.116;11.660;2023-05-09T04:11:07;95874.53;;;8.10;100.00
65800;BME280;52544;48.116;11.660;2023-05-09T04:13:33;95884.94;;;8.11;100.00
65800;BME280;52544;48.116;11.660;2023-05-09T04:15:58;95878.31;;;8.06;100.00
65800;BME280;52544;48.116;11.660;2023-05-09T04:18:24;95877.91;;;8.12;100.00
65800;BME280;52544;48.116;11.660;2023-05-09T04:20:49;95872.84;;;8.09;100.00
65800;BME280;52544;48.116;11.660;2023-05-09T04:23:15;95881.13;;;8.15;100.00
65800;BME280;52544;48.116;11.660;2023-05-09T04:25:40;95881.88;;;8.17;100.00
65800;BME280;52544;48.116;11.660;2023-05-09T04:28:06;95886.72;;;8.23;100.00
65800;BME280;52544;48.116;11.660;2023-05-09T04:30:32;95884.38;;;8.32;100.00
65800;BME280;52544;48.116;11.660;2023-05-09T04:32:57;95873.72;;;8.33;100.00
65800;BME280;52544;48.116;11.660;2023-05-09T04:35:23;95872.25;;;8.42;100.00
65800;BME280;52544;48.116;11.660;2023-05-09T04:37:48;95869.28;;;8.46;100.00
65800;BME280;52544;48.116;11.660;2023-05-09T04:40:14;95873.25;;;8.52;100.00
65800;BME280;52544;48.116;11.660;2023-05-09T04:42:39;95881.06;;;8.54;100.00
65800;BME280;52544;48.116;11.660;2023-05-09T04:45:06;95873.25;;;8.52;100.00
65800;BME280;52544;48.116;11.660;2023-05-09T04:47:32;95873.56;;;8.60;100.00
65800;BME280;52544;48.116;11.660;2023-05-09T04:49:57;95868.56;;;8.68;100.00
65800;BME280;52544;48.116;11.660;2023-05-09T04:52:23;95861.03;;;8.75;100.00
65800;BME280;52544;48.116;11.660;2023-05-09T04:54:48;95861.53;;;8.80;100.00
65800;BME280;52544;48.116;11.660;2023-05-09T04:57:14;95864.06;;;8.82;100.00
65800;BME280;52544;48.116;11.660;2023-05-09T04:59:40;95861.22;;;8.96;100.00
65800;BME280;52544;48.116;11.660;2023-05-09T05:02:05;95855.00;;;8.97;100.00
65800;BME280;52544;48.116;11.660;2023-05-09T05:04:30;95864.81;;;8.95;100.00
65800;BME280;52544;48.116;11.660;2023-05-09T05:06:56;95865.09;;;9.03;100.00
65800;BME280;52544;48.116;11.660;2023-05-09T05:09:22;95868.00;;;9.11;100.00
65800;BME280;52544;48.116;11.660;2023-05-09T05:11:47;95862.25;;;9.17;100.00
65800;BME280;52544;48.116;11.660;2023-05-09T05:14:12;95854.38;;;9.29;100.00
65800;BME280;52544;48.116;11.660;2023-05-09T05:16:38;95854.75;;;9.35;100.00
65800;BME280;52544;48.116;11.660;2023-05-09T05:19:03;95853.22;;;9.44;100.00
65800;BME280;52544;48.116;11.660;2023-05-09T05:21:29;95852.59;;;9.40;100.00
65800;BME280;52544;48.116;11.660;2023-05-09T05:23:54;95844.28;;;9.34;100.00
65800;BME280;52544;48.116;11.660;2023-05-09T05:26:19;95847.81;;;9.45;100.00
65800;BME280;52544;48.116;11.660;2023-05-09T05:28:45;95849.38;;;9.48;100.00
65800;BME280;52544;48.116;11.660;2023-05-09T05:31:10;95844.22;;;9.58;100.00
65800;BME280;52544;48.116;11.660;2023-05-09T05:33:36;95845.53;;;9.63;100.00
65800;BME280;52544;48.116;11.660;2023-05-09T05:36:01;95851.56;;;9.65;100.00
65800;BME280;52544;48.116;11.660;2023-05-09T05:38:27;95846.88;;;9.69;100.00
65800;BME280;52544;48.116;11.660;2023-05-09T05:40:52;95850.97;;;9.73;100.00
65800;BME280;52544;48.116;11.660;2023-05-09T05:43:18;95852.28;;;9.79;100.00
65800;BME280;52544;48.116;11.660;2023-05-09T05:45:43;95861.91;;;9.91;100.00
65800;BME280;52544;48.116;11.660;2023-05-09T05:48:08;95861.41;;;9.97;100.00
65800;BME280;52544;48.116;11.660;2023-05-09T05:50:34;95864.16;;;10.07;100.00
65800;BME280;52544;48.116;11.660;2023-05-09T05:53:01;95857.81;;;10.20;100.00
65800;BME280;52544;48.116;11.660;2023-05-09T05:55:26;95858.78;;;10.31;100.00
65800;BME280;52544;48.116;11.660;2023-05-09T05:57:52;95847.34;;;10.41;100.00
65800;BME280;52544;48.116;11.660;2023-05-09T06:00:17;95846.69;;;10.49;100.00
65800;BME280;52544;48.116;11.660;2023-05-09T06:02:43;95847.16;;;10.65;100.00
65800;BME280;52544;48.116;11.660;2023-05-09T06:05:09;95842.28;;;10.82;100.00
65800;BME280;52544;48.116;11.660;2023-05-09T06:07:35;95841.63;;;11.00;100.00
65800;BME280;52544;48.116;11.660;2023-05-09T06:10:00;95825.53;;;11.13;100.00
65800;BME280;52544;48.116;11.660;2023-05-09T06:12:26;95826.69;;;11.20;100.00
65800;BME280;52544;48.116;11.660;2023-05-09T06:14:51;95819.88;;;11.39;100.00
65800;BME280;52544;48.116;11.660;2023-05-09T06:17:16;95815.50;;;11.38;100.00
65800;BME280;52544;48.116;11.660;2023-05-09T06:19:42;95817.84;;;11.52;100.00
65800;BME280;52544;48.116;11.660;2023-05-09T06:22:07;95820.00;;;11.68;100.00
65800;BME280;52544;48.116;11.660;2023-05-09T06:24:33;95818.09;;;11.80;100.00
65800;BME280;52544;48.116;11.660;2023-05-09T06:26:58;95819.91;;;12.00;100.00
65800;BME280;52544;48.116;11.660;2023-05-09T06:29:24;95807.63;;;11.99;100.00
65800;BME280;52544;48.116;11.660;2023-05-09T06:31:49;95810.47;;;12.17;100.00
65800;BME280;52544;48.116;11.660;2023-05-09T06:34:14;95817.50;;;12.28;100.00
65800;BME280;52544;48.116;11.660;2023-05-09T06:36:40;95812.47;;;12.44;100.00
65800;BME280;52544;48.116;11.660;2023-05-09T06:39:05;95807.91;;;12.65;100.00
65800;BME280;52544;48.116;11.660;2023-05-09T06:41:31;95801.91;;;12.83;100.00
65800;BME280;52544;48.116;11.660;2023-05-09T06:43:57;95804.44;;;12.94;100.00
65800;BME280;52544;48.116;11.660;2023-05-09T06:46:22;95793.78;;;13.04;100.00
65800;BME280;52544;48.116;11.660;2023-05-09T06:48:47;95786.78;;;13.12;100.00
65800;BME280;52544;48.116;11.660;2023-05-09T06:51:13;95785.69;;;13.24;100.00
65800;BME280;52544;48.116;11.660;2023-05-09T06:53:38;95781.75;;;13.29;100.00
65800;BME280;52544;48.116;11.660;2023-05-09T06:56:04;95786.50;;;13.44;100.00
65800;BME280;52544;48.116;11.660;2023-05-09T06:58:29;95788.44;;;13.52;100.00
65800;BME280;52544;48.116;11.660;2023-05-09T07:00:55;95782.53;;;13.58;100.00
65800;BME280;52544;48.116;11.660;2023-05-09T07:03:20;95788.91;;;13.75;100.00
65800;BME280;52544;48.116;11.660;2023-05-09T07:05:46;95784.38;;;13.95;100.00
65800;BME280;52544;48.116;11.660;2023-05-09T07:08:12;95786.25;;;14.12;100.00
65800;BME280;52544;48.116;11.660;2023-05-09T07:10:37;95785.34;;;14.21;100.00
65800;BME280;52544;48.116;11.660;2023-05-09T07:13:03;95768.78;;;14.55;100.00
65800;BME280;52544;48.116;11.660;2023-05-09T07:15:28;95774.56;;;14.68;100.00
65800;BME280;52544;48.116;11.660;2023-05-09T07:17:54;95769.56;;;14.83;100.00
65800;BME280;52544;48.116;11.660;2023-05-09T07:20:20;95764.44;;;15.08;100.00
65800;BME280;52544;48.116;11.660;2023-05-09T07:22:45;95761.59;;;15.27;100.00
65800;BME280;52544;48.116;11.660;2023-05-09T07:25:11;95760.22;;;15.49;100.00
65800;BME280;52544;48.116;11.660;2023-05-09T07:27:36;95764.03;;;15.64;98.33
65800;BME280;52544;48.116;11.660;2023-05-09T07:30:03;95750.41;;;15.75;98.25
65800;BME280;52544;48.116;11.660;2023-05-09T07:32:29;95746.72;;;16.03;94.64
65800;BME280;52544;48.116;11.660;2023-05-09T07:34:55;95745.25;;;16.16;95.22
65800;BME280;52544;48.116;11.660;2023-05-09T07:37:20;95742.97;;;16.30;94.14
65800;BME280;52544;48.116;11.660;2023-05-09T07:39:45;95742.72;;;16.57;92.82
65800;BME280;52544;48.116;11.660;2023-05-09T07:42:14;95738.75;;;16.86;93.17
65800;BME280;52544;48.116;11.660;2023-05-09T07:44:40;95733.09;;;17.05;88.75
65800;BME280;52544;48.116;11.660;2023-05-09T07:47:05;95733.94;;;17.06;88.23
65800;BME280;52544;48.116;11.660;2023-05-09T07:49:33;95729.91;;;16.93;88.86
65800;BME280;52544;48.116;11.660;2023-05-09T07:51:59;95725.09;;;17.13;88.15
65800;BME280;52544;48.116;11.660;2023-05-09T07:54:24;95718.00;;;17.45;93.27
65800;BME280;52544;48.116;11.660;2023-05-09T07:56:50;95719.94;;;17.84;86.93
65800;BME280;52544;48.116;11.660;2023-05-09T07:59:16;95721.34;;;18.19;84.85
65800;BME280;52544;48.116;11.660;2023-05-09T08:01:42;95717.50;;;18.13;89.09
65800;BME280;52544;48.116;11.660;2023-05-09T08:04:07;95722.84;;;17.58;86.02
65800;BME280;52544;48.116;11.660;2023-05-09T08:06:34;95720.38;;;17.07;86.04
65800;BME280;52544;48.116;11.660;2023-05-09T08:09:00;95714.72;;;17.10;90.00
65800;BME280;52544;48.116;11.660;2023-05-09T08:11:25;95704.19;;;17.01;89.71
65800;BME280;52544;48.116;11.660;2023-05-09T08:13:50;95704.84;;;17.03;96.79
65800;BME280;52544;48.116;11.660;2023-05-09T08:16:16;95698.97;;;17.23;92.69
65800;BME280;52544;48.116;11.660;2023-05-09T08:18:45;95698.50;;;17.12;94.16
65800;BME280;52544;48.116;11.660;2023-05-09T08:21:10;95694.34;;;17.01;93.34
65800;BME280;52544;48.116;11.660;2023-05-09T08:23:36;95686.50;;;16.99;96.19
65800;BME280;52544;48.116;11.660;2023-05-09T08:26:01;95692.00;;;17.06;95.03
65800;BME280;52544;48.116;11.660;2023-05-09T08:28:27;95685.31;;;17.10;100.00
65800;BME280;52544;48.116;11.660;2023-05-09T08:30:55;95688.66;;;17.04;96.88
65800;BME280;52544;48.116;11.660;2023-05-09T08:33:22;95690.00;;;17.00;99.03
65800;BME280;52544;48.116;11.660;2023-05-09T08:35:51;95686.81;;;17.05;99.78
65800;BME280;52544;48.116;11.660;2023-05-09T08:38:16;95681.28;;;17.06;94.16
65800;BME280;52544;48.116;11.660;2023-05-09T08:40:42;95676.28;;;17.11;97.86
65800;BME280;52544;48.116;11.660;2023-05-09T08:43:07;95675.28;;;17.12;96.89
65800;BME280;52544;48.116;11.660;2023-05-09T08:46:04;95668.72;;;17.31;100.00
65800;BME280;52544;48.116;11.660;2023-05-09T08:48:33;95669.72;;;17.38;100.00
65800;BME280;52544;48.116;11.660;2023-05-09T08:50:58;95667.03;;;17.46;95.02
65800;BME280;52544;48.116;11.660;2023-05-09T08:53:25;95662.19;;;17.50;93.00
65800;BME280;52544;48.116;11.660;2023-05-09T08:55:51;95664.16;;;17.56;95.01
65800;BME280;52544;48.116;11.660;2023-05-09T08:58:18;95666.13;;;17.62;93.72
65800;BME280;52544;48.116;11.660;2023-05-09T09:00:44;95663.78;;;17.67;95.50
65800;BME280;52544;48.116;11.660;2023-05-09T09:03:10;95656.47;;;17.53;96.05
65800;BME280;52544;48.116;11.660;2023-05-09T09:05:36;95658.66;;;17.41;93.63
65800;BME280;52544;48.116;11.660;2023-05-09T09:08:03;95644.44;;;17.49;96.26
65800;BME280;52544;48.116;11.660;2023-05-09T09:10:32;95637.44;;;17.40;92.16
65800;BME280;52544;48.116;11.660;2023-05-09T09:12:59;95629.69;;;17.61;100.00
65800;BME280;52544;48.116;11.660;2023-05-09T09:15:28;95635.00;;;17.69;94.02
65800;BME280;52544;48.116;11.660;2023-05-09T09:17:56;95625.22;;;17.93;97.69
65800;BME280;52544;48.116;11.660;2023-05-09T09:20:25;95626.88;;;17.94;94.50
65800;BME280;52544;48.116;11.660;2023-05-09T09:22:54;95612.16;;;17.98;90.51
65800;BME280;52544;48.116;11.660;2023-05-09T09:25:22;95620.47;;;18.03;90.97
65800;BME280;52544;48.116;11.660;2023-05-09T09:27:48;95603.59;;;18.26;94.83
65800;BME280;52544;48.116;11.660;2023-05-09T09:30:14;95613.31;;;18.27;92.18
65800;BME280;52544;48.116;11.660;2023-05-09T09:32:39;95622.88;;;18.21;88.69
65800;BME280;52544;48.116;11.660;2023-05-09T09:35:09;95604.84;;;18.38;91.36
65800;BME280;52544;48.116;11.660;2023-05-09T09:37:39;95607.47;;;18.46;85.87
65800;BME280;52544;48.116;11.660;2023-05-09T09:40:07;95597.78;;;18.45;87.68
65800;BME280;52544;48.116;11.660;2023-05-09T09:42:50;95594.97;;;18.38;83.97
65800;BME280;52544;48.116;11.660;2023-05-09T09:45:17;95585.56;;;18.42;85.71
65800;BME280;52544;48.116;11.660;2023-05-09T09:47:44;95587.28;;;18.58;88.97
65800;BME280;52544;48.116;11.660;2023-05-09T09:50:17;95580.16;;;18.73;88.33
65800;BME280;52544;48.116;11.660;2023-05-09T09:52:51;95582.03;;;18.65;84.65
65800;BME280;52544;48.116;11.660;2023-05-09T09:55:17;95582.09;;;18.80;84.08
65800;BME280;52544;48.116;11.660;2023-05-09T09:57:43;95583.22;;;18.85;87.79
65800;BME280;52544;48.116;11.660;2023-05-09T10:00:24;95569.91;;;19.07;92.31
65800;BME280;52544;48.116;11.660;2023-05-09T10:02:56;95561.25;;;19.34;89.88
65800;BME280;52544;48.116;11.660;2023-05-09T10:05:30;95559.66;;;19.69;82.08
65800;BME280;52544;48.116;11.660;2023-05-09T10:10:25;95551.41;;;20.07;83.36
65800;BME280;52544;48.116;11.660;2023-05-09T10:12:54;95551.22;;;20.30;78.40
65800;BME280;52544;48.116;11.660;2023-05-09T10:15:20;95549.44;;;20.16;71.32
65800;BME280;52544;48.116;11.660;2023-05-09T10:17:49;95548.47;;;20.45;75.17
65800;BME280;52544;48.116;11.660;2023-05-09T10:20:17;95540.19;;;20.61;81.07
65800;BME280;52544;48.116;11.660;2023-05-09T10:22:43;95536.56;;;20.76;73.95
65800;BME280;52544;48.116;11.660;2023-05-09T10:25:19;95533.38;;;20.65;71.43
65800;BME280;52544;48.116;11.660;2023-05-09T10:27:46;95530.22;;;20.83;72.37
65800;BME280;52544;48.116;11.660;2023-05-09T10:30:21;95517.09;;;21.02;71.55
65800;BME280;52544;48.116;11.660;2023-05-09T10:32:51;95521.78;;;21.21;69.05
65800;BME280;52544;48.116;11.660;2023-05-09T10:35:17;95498.75;;;21.53;75.34
65800;BME280;52544;48.116;11.660;2023-05-09T10:37:46;95510.00;;;21.63;67.84
65800;BME280;52544;48.116;11.660;2023-05-09T10:40:12;95502.53;;;21.65;67.70
65800;BME280;52544;48.116;11.660;2023-05-09T10:42:43;95500.34;;;21.95;62.69
65800;BME280;52544;48.116;11.660;2023-05-09T10:45:09;95503.91;;;22.09;65.72
65800;BME280;52544;48.116;11.660;2023-05-09T10:47:37;95494.34;;;22.07;63.71
65800;BME280;52544;48.116;11.660;2023-05-09T10:50:03;95493.16;;;22.16;63.30
65800;BME280;52544;48.116;11.660;2023-05-09T10:52:32;95486.13;;;22.28;59.60
65800;BME280;52544;48.116;11.660;2023-05-09T10:55:01;95476.38;;;22.14;61.26
65800;BME280;52544;48.116;11.660;2023-05-09T10:57:30;95479.50;;;22.44;62.17
65800;BME280;52544;48.116;11.660;2023-05-09T10:59:57;95480.72;;;22.68;58.83
65800;BME280;52544;48.116;11.660;2023-05-09T11:02:23;95472.25;;;22.91;59.99
65800;BME280;52544;48.116;11.660;2023-05-09T11:05:14;95471.19;;;22.79;57.11
65800;BME280;52544;48.116;11.660;2023-05-09T11:07:40;95457.72;;;22.92;60.18
65800;BME280;52544;48.116;11.660;2023-05-09T11:10:09;95459.59;;;22.91;57.60
65800;BME280;52544;48.116;11.660;2023-05-09T11:12:52;95460.63;;;22.90;56.37
65800;BME280;52544;48.116;11.660;2023-05-09T11:15:19;95442.47;;;23.17;57.84
65800;BME280;52544;48.116;11.660;2023-05-09T11:17:49;95436.25;;;23.24;59.14
65800;BME280;52544;48.116;11.660;2023-05-09T11:20:16;95431.81;;;23.36;60.44
65800;BME280;52544;48.116;11.660;2023-05-09T11:22:42;95424.59;;;23.30;58.29
65800;BME280;52544;48.116;11.660;2023-05-09T11:25:10;95427.16;;;23.11;56.14
65800;BME280;52544;48.116;11.660;2023-05-09T11:30:13;95408.66;;;23.66;55.38
65800;BME280;52544;48.116;11.660;2023-05-09T11:35:16;95406.53;;;23.75;54.81
65800;BME280;52544;48.116;11.660;2023-05-09T11:40:13;95398.31;;;23.50;55.21
65800;BME280;52544;48.116;11.660;2023-05-09T11:42:41;95397.53;;;23.43;53.01
65800;BME280;52544;48.116;11.660;2023-05-09T11:45:08;95395.13;;;23.28;55.54
65800;BME280;52544;48.116;11.660;2023-05-09T11:47:36;95382.97;;;23.44;58.92
65800;BME280;52544;48.116;11.660;2023-05-09T11:50:01;95392.84;;;23.63;54.80
65800;BME280;52544;48.116;11.660;2023-05-09T11:52:31;95377.63;;;23.31;55.03
65800;BME280;52544;48.116;11.660;2023-05-09T11:54:57;95384.19;;;23.55;55.79
65800;BME280;52544;48.116;11.660;2023-05-09T11:57:23;95384.56;;;23.58;54.05
65800;BME280;52544;48.116;11.660;2023-05-09T11:59:49;95378.69;;;23.75;58.67
65800;BME280;52544;48.116;11.660;2023-05-09T12:02:15;95369.94;;;24.04;52.52
65800;BME280;52544;48.116;11.660;2023-05-09T12:04:40;95366.19;;;24.30;55.68
65800;BME280;52544;48.116;11.660;2023-05-09T12:07:06;95365.00;;;24.69;54.37
65800;BME280;52544;48.116;11.660;2023-05-09T12:09:33;95361.34;;;24.64;50.57
65800;BME280;52544;48.116;11.660;2023-05-09T12:12:00;95362.22;;;24.33;48.71
65800;BME280;52544;48.116;11.660;2023-05-09T12:16:51;95346.56;;;24.41;53.58
65800;BME280;52544;48.116;11.660;2023-05-09T12:19:22;95339.53;;;24.34;56.41
65800;BME280;52544;48.116;11.660;2023-05-09T12:21:47;95347.75;;;24.20;50.16
65800;BME280;52544;48.116;11.660;2023-05-09T12:24:13;95338.63;;;23.97;50.46
65800;BME280;52544;48.116;11.660;2023-05-09T12:26:38;95331.53;;;24.20;57.19
65800;BME280;52544;48.116;11.660;2023-05-09T12:29:04;95320.81;;;24.39;52.68
65800;BME280;52544;48.116;11.660;2023-05-09T12:31:30;95321.09;;;24.49;52.00
65800;BME280;52544;48.116;11.660;2023-05-09T12:33:55;95313.22;;;24.48;52.26
65800;BME280;52544;48.116;11.660;2023-05-09T12:36:21;95304.72;;;24.62;54.06
65800;BME280;52544;48.116;11.660;2023-05-09T12:38:55;95309.25;;;24.68;53.64
65800;BME280;52544;48.116;11.660;2023-05-09T12:41:20;95295.78;;;24.62;50.50
65800;BME280;52544;48.116;11.660;2023-05-09T12:43:48;95296.75;;;24.67;51.43
65800;BME280;52544;48.116;11.660;2023-05-09T12:46:17;95295.06;;;24.30;49.81
65800;BME280;52544;48.116;11.660;2023-05-09T12:48:44;95291.50;;;24.11;50.84
65800;BME280;52544;48.116;11.660;2023-05-09T12:51:10;95287.31;;;24.40;50.89
65800;BME280;52544;48.116;11.660;2023-05-09T12:53:37;95278.28;;;24.46;54.47
65800;BME280;52544;48.116;11.660;2023-05-09T12:56:10;95265.50;;;24.72;50.87
65800;BME280;52544;48.116;11.660;2023-05-09T12:58:36;95276.50;;;24.77;47.56
65800;BME280;52544;48.116;11.660;2023-05-09T13:01:04;95268.44;;;24.70;49.13
65800;BME280;52544;48.116;11.660;2023-05-09T13:03:30;95263.38;;;24.92;49.54